sensor_id;sensor_type;location;lat;lon;timestamp;pressure;altitude;pressure_sealevel;temperature;humidity
7200;BME280;3641;49.082;8.200;2023-12-20T00:01:10;100529.16;;;3.95;100.00
7200;BME280;3641;49.082;8.200;2023-12-20T00:03:36;100528.19;;;3.96;100.00
7200;BME280;3641;49.082;8.200;2023-12-20T00:06:03;100525.63;;;3.95;100.00
7200;BME280;3641;49.082;8.200;2023-12-20T00:08:29;100527.47;;;3.94;100.00
7200;BME280;3641;49.082;8.200;2023-12-20T00:10:57;100515.25;;;4.00;100.00
7200;BME280;3641;49.082;8.200;2023-12-20T00:13:23;100516.94;;;3.91;100.00
7200;BME280;3641;49.082;8.200;2023-12-20T00:15:50;100518.22;;;3.97;100.00
7200;BME280;3641;49.082;8.200;2023-12-20T00:18:16;100516.41;;;4.07;100.00
7200;BME280;3641;49.082;8.200;2023-12-20T00:20:43;100513.75;;;3.76;100.00
7200;BME280;3641;49.082;8.200;2023-12-20T00:23:09;100502.66;;;3.70;100.00
7200;BME280;3641;49.082;8.200;2023-12-20T00:25:35;100506.25;;;3.80;100.00
7200;BME280;3641;49.082;8.200;2023-12-20T00:28:03;100507.72;;;4.04;100.00
7200;BME280;3641;49.082;8.200;2023-12-20T00:30:30;100513.03;;;4.25;100.00
7200;BME280;3641;49.082;8.200;2023-12-20T00:32:56;100511.69;;;3.99;100.00
7200;BME280;3641;49.082;8.200;2023-12-20T00:35:23;100516.34;;;3.88;100.00
7200;BME280;3641;49.082;8.200;2023-12-20T00:37:49;100510.66;;;3.91;100.00
7200;BME280;3641;49.082;8.200;2023-12-20T00:40:15;100513.19;;;3.82;100.00
7200;BME280;3641;49.082;8.200;2023-12-20T00:42:42;100512.53;;;3.90;100.00
7200;BME280;3641;49.082;8.200;2023-12-20T00:45:10;100512.78;;;3.87;100.00
7200;BME280;3641;49.082;8.200;2023-12-20T00:47:36;100514.25;;;4.01;100.00
7200;BME280;3641;49.082;8.200;2023-12-20T00:50:03;100508.53;;;3.85;100.00
7200;BME280;3641;49.082;8.200;2023-12-20T00:52:29;100522.03;;;3.85;100.00
7200;BME280;3641;49.082;8.200;2023-12-20T00:54:56;100526.84;;;3.81;100.00
7200;BME280;3641;49.082;8.200;2023-12-20T00:57:22;100520.34;;;3.93;100.00
7200;BME280;3641;49.082;8.200;2023-12-20T00:59:49;100519.75;;;3.80;100.00
7200;BME280;3641;49.082;8.200;2023-12-20T01:02:16;100526.47;;;3.95;100.00
7200;BME280;3641;49.082;8.200;2023-12-20T01:04:43;100515.19;;;3.80;100.00
7200;BME280;3641;49.082;8.200;2023-12-20T01:07:09;100517.06;;;3.90;100.00
7200;BME280;3641;49.082;8.200;2023-12-20T01:09:36;100507.09;;;3.80;100.00
7200;BME280;3641;49.082;8.200;2023-12-20T01:12:02;100501.56;;;3.82;100.00
7200;BME280;3641;49.082;8.200;2023-12-20T01:14:29;100502.69;;;3.89;100.00
7200;BME280;3641;49.082;8.200;2023-12-20T01:16:55;100500.44;;;3.85;100.00
7200;BME280;3641;49.082;8.200;2023-12-20T01:19:24;100500.00;;;3.89;100.00
7200;BME280;3641;49.082;8.200;2023-12-20T01:21:52;100488.34;;;3.89;100.00
7200;BME280;3641;49.082;8.200;2023-12-20T01:24:18;100496.88;;;3.94;100.00
7200;BME280;3641;49.082;8.200;2023-12-20T01:26:45;100486.09;;;3.94;100.00
7200;BME280;3641;49.082;8.200;2023-12-20T01:29:11;100475.13;;;3.86;100.00
7200;BME280;3641;49.082;8.200;2023-12-20T01:31:39;100479.28;;;3.90;100.00
7200;BME280;3641;49.082;8.200;2023-12-20T01:34:05;100467.91;;;3.86;100.00
7200;BME280;3641;49.082;8.200;2023-12-20T01:36:33;100480.13;;;3.90;100.00
7200;BME280;3641;49.082;8.200;2023-12-20T01:38:59;100478.25;;;3.91;100.00
7200;BME280;3641;49.082;8.200;2023-12-20T01:41:26;100464.81;;;4.00;100.00
7200;BME280;3641;49.082;8.200;2023-12-20T01:43:52;100472.91;;;4.00;100.00
7200;BME280;3641;49.082;8.200;2023-12-20T01:46:19;100472.31;;;3.97;100.00
7200;BME280;3641;49.082;8.200;2023-12-20T01:48:47;100472.03;;;4.10;100.00
7200;BME280;3641;49.082;8.200;2023-12-20T01:51:13;100467.91;;;3.96;100.00
7200;BME280;3641;49.082;8.200;2023-12-20T01:53:42;100469.59;;;3.97;100.00
7200;BME280;3641;49.082;8.200;2023-12-20T01:56:08;100465.50;;;4.03;100.00
7200;BME280;3641;49.082;8.200;2023-12-20T01:58:38;100463.06;;;3.99;100.00
7200;BME280;3641;49.082;8.200;2023-12-20T02:01:05;100458.94;;;3.95;100.00
7200;BME280;3641;49.082;8.200;2023-12-20T02:03:31;100466.34;;;4.03;100.00
7200;BME280;3641;49.082;8.200;2023-12-20T02:05:58;100468.50;;;4.09;100.00
7200;BME280;3641;49.082;8.200;2023-12-20T02:08:24;100475.47;;;4.12;100.00
7200;BME280;3641;49.082;8.200;2023-12-20T02:10:52;100475.06;;;4.16;100.00
7200;BME280;3641;49.082;8.200;2023-12-20T02:13:18;100465.78;;;4.09;100.00
7200;BME280;3641;49.082;8.200;2023-12-20T02:15:45;100465.78;;;3.99;100.00
7200;BME280;3641;49.082;8.200;2023-12-20T02:18:12;100455.28;;;4.16;100.00
7200;BME280;3641;49.082;8.200;2023-12-20T02:20:40;100460.25;;;4.01;100.00
7200;BME280;3641;49.082;8.200;2023-12-20T02:23:08;100463.22;;;3.98;100.00
7200;BME280;3641;49.082;8.200;2023-12-20T02:25:34;100461.66;;;4.05;100.00
7200;BME280;3641;49.082;8.200;2023-12-20T02:28:01;100467.22;;;4.13;100.00
7200;BME280;3641;49.082;8.200;2023-12-20T02:30:28;100466.91;;;4.07;100.00
7200;BME280;3641;49.082;8.200;2023-12-20T02:32:54;100479.16;;;4.21;100.00
7200;BME280;3641;49.082;8.200;2023-12-20T02:35:21;100473.06;;;4.09;100.00
7200;BME280;3641;49.082;8.200;2023-12-20T02:37:47;100475.91;;;4.17;100.00
7200;BME280;3641;49.082;8.200;2023-12-20T02:40:15;100471.78;;;4.32;100.00
7200;BME280;3641;49.082;8.200;2023-12-20T02:42:42;100484.72;;;4.19;100.00
7200;BME280;3641;49.082;8.200;2023-12-20T02:45:08;100488.44;;;4.28;100.00
7200;BME280;3641;49.082;8.200;2023-12-20T02:47:35;100491.25;;;4.16;100.00
7200;BME280;3641;49.082;8.200;2023-12-20T02:50:01;100494.69;;;4.28;100.00
7200;BME280;3641;49.082;8.200;2023-12-20T02:52:28;100491.25;;;4.16;100.00
7200;BME280;3641;49.082;8.200;2023-12-20T02:54:55;100495.38;;;4.30;100.00
7200;BME280;3641;49.082;8.200;2023-12-20T02:57:22;100482.28;;;4.16;100.00
7200;BME280;3641;49.082;8.200;2023-12-20T02:59:49;100482.16;;;4.17;100.00
7200;BME280;3641;49.082;8.200;2023-12-20T03:02:15;100477.91;;;4.15;100.00
7200;BME280;3641;49.082;8.200;2023-12-20T03:04:42;100473.06;;;4.18;100.00
7200;BME280;3641;49.082;8.200;2023-12-20T03:07:08;100479.72;;;4.34;100.00
7200;BME280;3641;49.082;8.200;2023-12-20T03:09:34;100460.25;;;4.21;100.00
7200;BME280;3641;49.082;8.200;2023-12-20T03:12:01;100479.16;;;4.11;100.00
7200;BME280;3641;49.082;8.200;2023-12-20T03:14:29;100487.41;;;4.19;100.00
7200;BME280;3641;49.082;8.200;2023-12-20T03:16:55;100489.13;;;4.30;100.00
7200;BME280;3641;49.082;8.200;2023-12-20T03:19:21;100485.25;;;4.13;100.00
7200;BME280;3641;49.082;8.200;2023-12-20T03:21:48;100481.31;;;4.17;100.00
7200;BME280;3641;49.082;8.200;2023-12-20T03:24:14;100483.72;;;4.10;100.00
7200;BME280;3641;49.082;8.200;2023-12-20T03:26:41;100497.22;;;4.10;100.00
7200;BME280;3641;49.082;8.200;2023-12-20T03:29:07;100489.53;;;4.15;100.00
7200;BME280;3641;49.082;8.200;2023-12-20T03:31:35;100486.84;;;4.15;100.00
7200;BME280;3641;49.082;8.200;2023-12-20T03:34:01;100492.09;;;4.07;100.00
7200;BME280;3641;49.082;8.200;2023-12-20T03:36:28;100489.53;;;4.15;100.00
7200;BME280;3641;49.082;8.200;2023-12-20T03:38:54;100474.59;;;4.11;100.00
7200;BME280;3641;49.082;8.200;2023-12-20T03:41:20;100467.06;;;4.05;100.00
7200;BME280;3641;49.082;8.200;2023-12-20T03:43:47;100469.06;;;4.03;100.00
7200;BME280;3641;49.082;8.200;2023-12-20T03:46:13;100472.03;;;4.10;100.00
7200;BME280;3641;49.082;8.200;2023-12-20T03:48:41;100481.84;;;4.11;100.00
7200;BME280;3641;49.082;8.200;2023-12-20T03:51:07;100488.66;;;4.05;100.00
7200;BME280;3641;49.082;8.200;2023-12-20T03:53:34;100487.53;;;4.08;100.00
7200;BME280;3641;49.082;8.200;2023-12-20T03:56:00;100491.81;;;4.10;100.00
7200;BME280;3641;49.082;8.200;2023-12-20T03:58:26;100492.38;;;4.14;100.00
7200;BME280;3641;49.082;8.200;2023-12-20T04:00:53;100504.47;;;4.19;100.00
7200;BME280;3641;49.082;8.200;2023-12-20T04:03:19;100491.97;;;4.18;100.00
7200;BME280;3641;49.082;8.200;2023-12-20T04:05:47;100490.94;;;4.10;100.00
7200;BME280;3641;49.082;8.200;2023-12-20T04:08:13;100506.47;;;4.17;100.00
7200;BME280;3641;49.082;8.200;2023-12-20T04:10:40;100506.31;;;4.29;100.00
7200;BME280;3641;49.082;8.200;2023-12-20T04:13:06;100508.59;;;4.24;100.00
7200;BME280;3641;49.082;8.200;2023-12-20T04:15:33;100503.91;;;4.26;100.00
7200;BME280;3641;49.082;8.200;2023-12-20T04:17:59;100498.50;;;4.16;100.00
7200;BME280;3641;49.082;8.200;2023-12-20T04:20:26;100498.91;;;4.21;100.00
7200;BME280;3641;49.082;8.200;2023-12-20T04:22:53;100498.91;;;4.11;100.00
7200;BME280;3641;49.082;8.200;2023-12-20T04:25:20;100512.16;;;4.34;100.00
7200;BME280;3641;49.082;8.200;2023-12-20T04:27:46;100516.44;;;4.46;100.00
7200;BME280;3641;49.082;8.200;2023-12-20T04:30:13;100515.03;;;4.32;100.00
7200;BME280;3641;49.082;8.200;2023-12-20T04:32:39;100530.53;;;4.40;100.00
7200;BME280;3641;49.082;8.200;2023-12-20T04:35:06;100530.38;;;4.32;100.00
7200;BME280;3641;49.082;8.200;2023-12-20T04:37:33;100519.84;;;4.39;100.00
7200;BME280;3641;49.082;8.200;2023-12-20T04:40:01;100524.69;;;4.35;100.00
7200;BME280;3641;49.082;8.200;2023-12-20T04:42:28;100535.38;;;4.46;100.00
7200;BME280;3641;49.082;8.200;2023-12-20T04:44:54;100537.38;;;4.54;100.00
7200;BME280;3641;49.082;8.200;2023-12-20T04:47:21;100530.25;;;4.53;100.00
7200;BME280;3641;49.082;8.200;2023-12-20T04:49:47;100548.03;;;4.55;100.00
7200;BME280;3641;49.082;8.200;2023-12-20T04:52:14;100537.22;;;4.55;100.00
7200;BME280;3641;49.082;8.200;2023-12-20T04:54:40;100533.25;;;4.60;100.00
7200;BME280;3641;49.082;8.200;2023-12-20T04:57:08;100548.47;;;4.61;100.00
7200;BME280;3641;49.082;8.200;2023-12-20T04:59:34;100551.44;;;4.67;100.00
7200;BME280;3641;49.082;8.200;2023-12-20T05:02:02;100542.50;;;4.67;100.00
7200;BME280;3641;49.082;8.200;2023-12-20T05:04:29;100538.94;;;4.57;100.00
7200;BME280;3641;49.082;8.200;2023-12-20T05:06:55;100533.09;;;4.71;100.00
7200;BME280;3641;49.082;8.200;2023-12-20T05:09:21;100540.63;;;4.67;100.00
7200;BME280;3641;49.082;8.200;2023-12-20T05:11:48;100537.63;;;4.80;100.00
7200;BME280;3641;49.082;8.200;2023-12-20T05:14:15;100551.34;;;4.79;100.00
7200;BME280;3641;49.082;8.200;2023-12-20T05:16:42;100549.63;;;4.78;100.00
7200;BME280;3641;49.082;8.200;2023-12-20T05:19:08;100556.75;;;4.79;100.00
7200;BME280;3641;49.082;8.200;2023-12-20T05:21:35;100552.88;;;4.71;100.00
7200;BME280;3641;49.082;8.200;2023-12-20T05:24:01;100564.13;;;4.77;100.00
7200;BME280;3641;49.082;8.200;2023-12-20T05:26:28;100554.88;;;4.69;100.00
7200;BME280;3641;49.082;8.200;2023-12-20T05:28:55;100573.94;;;4.78;100.00
7200;BME280;3641;49.082;8.200;2023-12-20T05:31:23;100574.94;;;4.77;100.00
7200;BME280;3641;49.082;8.200;2023-12-20T05:33:49;100573.94;;;4.78;100.00
7200;BME280;3641;49.082;8.200;2023-12-20T05:36:16;100562.97;;;4.89;100.00
7200;BME280;3641;49.082;8.200;2023-12-20T05:38:42;100566.69;;;4.78;100.00
7200;BME280;3641;49.082;8.200;2023-12-20T05:41:08;100575.66;;;4.88;100.00
7200;BME280;3641;49.082;8.200;2023-12-20T05:43:35;100569.53;;;4.86;100.00
7200;BME280;3641;49.082;8.200;2023-12-20T05:46:01;100574.09;;;4.86;100.00
7200;BME280;3641;49.082;8.200;2023-12-20T05:48:29;100580.19;;;4.78;100.00
7200;BME280;3641;49.082;8.200;2023-12-20T05:50:56;100562.56;;;4.84;100.00
7200;BME280;3641;49.082;8.200;2023-12-20T05:53:22;100558.25;;;5.01;100.00
7200;BME280;3641;49.082;8.200;2023-12-20T05:55:49;100567.97;;;4.94;100.00
7200;BME280;3641;49.082;8.200;2023-12-20T05:58:15;100570.66;;;4.94;100.00
7200;BME280;3641;49.082;8.200;2023-12-20T06:00:41;100588.47;;;4.77;100.00
7200;BME280;3641;49.082;8.200;2023-12-20T06:03:08;100597.72;;;4.94;100.00
7200;BME280;3641;49.082;8.200;2023-12-20T06:05:36;100608.81;;;4.90;100.00
7200;BME280;3641;49.082;8.200;2023-12-20T06:08:02;100616.94;;;4.81;100.00
7200;BME280;3641;49.082;8.200;2023-12-20T06:10:29;100608.81;;;4.81;100.00
7200;BME280;3641;49.082;8.200;2023-12-20T06:12:55;100619.50;;;4.92;100.00
7200;BME280;3641;49.082;8.200;2023-12-20T06:15:23;100624.06;;;4.91;100.00
7200;BME280;3641;49.082;8.200;2023-12-20T06:17:50;100626.19;;;4.98;100.00
7200;BME280;3641;49.082;8.200;2023-12-20T06:20:16;100635.44;;;4.85;100.00
7200;BME280;3641;49.082;8.200;2023-12-20T06:22:44;100640.72;;;4.87;100.00
7200;BME280;3641;49.082;8.200;2023-12-20T06:25:11;100644.97;;;4.70;100.00
7200;BME280;3641;49.082;8.200;2023-12-20T06:27:37;100648.09;;;4.85;100.00
7200;BME280;3641;49.082;8.200;2023-12-20T06:30:04;100639.41;;;4.81;100.00
7200;BME280;3641;49.082;8.200;2023-12-20T06:32:31;100648.97;;;4.95;100.00
7200;BME280;3641;49.082;8.200;2023-12-20T06:34:57;100649.13;;;4.94;100.00
7200;BME280;3641;49.082;8.200;2023-12-20T06:37:24;100651.09;;;4.82;100.00
7200;BME280;3641;49.082;8.200;2023-12-20T06:39:51;100651.81;;;4.74;100.00
7200;BME280;3641;49.082;8.200;2023-12-20T06:42:18;100656.22;;;4.85;100.00
7200;BME280;3641;49.082;8.200;2023-12-20T06:44:44;100659.50;;;4.79;100.00
7200;BME280;3641;49.082;8.200;2023-12-20T06:47:11;100665.19;;;4.85;100.00
7200;BME280;3641;49.082;8.200;2023-12-20T06:49:39;100669.88;;;4.73;100.00
7200;BME280;3641;49.082;8.200;2023-12-20T06:52:05;100673.47;;;4.84;100.00
7200;BME280;3641;49.082;8.200;2023-12-20T06:54:32;100668.16;;;4.63;100.00
7200;BME280;3641;49.082;8.200;2023-12-20T06:57:00;100674.13;;;4.66;100.00
7200;BME280;3641;49.082;8.200;2023-12-20T06:59:28;100688.63;;;4.55;100.00
7200;BME280;3641;49.082;8.200;2023-12-20T07:01:54;100695.19;;;4.63;100.00
7200;BME280;3641;49.082;8.200;2023-12-20T07:04:21;100702.72;;;4.59;100.00
7200;BME280;3641;49.082;8.200;2023-12-20T07:06:47;100702.59;;;4.70;100.00
7200;BME280;3641;49.082;8.200;2023-12-20T07:09:16;100710.91;;;4.79;100.00
7200;BME280;3641;49.082;8.200;2023-12-20T07:11:42;100707.69;;;4.64;100.00
7200;BME280;3641;49.082;8.200;2023-12-20T07:14:10;100710.44;;;4.73;100.00
7200;BME280;3641;49.082;8.200;2023-12-20T07:16:37;100701.59;;;4.62;100.00
7200;BME280;3641;49.082;8.200;2023-12-20T07:19:03;100716.44;;;4.77;100.00
7200;BME280;3641;49.082;8.200;2023-12-20T07:21:30;100714.78;;;4.45;100.00
7200;BME280;3641;49.082;8.200;2023-12-20T07:23:56;100724.38;;;4.28;100.00
7200;BME280;3641;49.082;8.200;2023-12-20T07:26:21;100718.53;;;4.23;100.00
7200;BME280;3641;49.082;8.200;2023-12-20T07:28:51;100716.53;;;4.25;100.00
7200;BME280;3641;49.082;8.200;2023-12-20T07:31:19;100711.03;;;4.36;100.00
7200;BME280;3641;49.082;8.200;2023-12-20T07:33:45;100722.63;;;3.96;100.00
7200;BME280;3641;49.082;8.200;2023-12-20T07:36:12;100717.59;;;4.13;100.00
7200;BME280;3641;49.082;8.200;2023-12-20T07:38:39;100724.88;;;3.91;100.00
7200;BME280;3641;49.082;8.200;2023-12-20T07:41:09;100732.75;;;4.25;100.00
7200;BME280;3641;49.082;8.200;2023-12-20T07:43:35;100732.94;;;4.43;100.00
7200;BME280;3641;49.082;8.200;2023-12-20T07:46:04;100736.44;;;4.55;100.00
7200;BME280;3641;49.082;8.200;2023-12-20T07:48:33;100724.50;;;4.27;100.00
7200;BME280;3641;49.082;8.200;2023-12-20T07:50:59;100744.81;;;4.00;100.00
7200;BME280;3641;49.082;8.200;2023-12-20T07:53:26;100740.31;;;4.00;100.00
7200;BME280;3641;49.082;8.200;2023-12-20T07:55:52;100743.13;;;3.78;100.00
7200;BME280;3641;49.082;8.200;2023-12-20T07:58:19;100745.84;;;3.99;100.00
7200;BME280;3641;49.082;8.200;2023-12-20T08:00:45;100757.38;;;3.80;100.00
7200;BME280;3641;49.082;8.200;2023-12-20T08:03:11;100756.97;;;3.85;100.00
7200;BME280;3641;49.082;8.200;2023-12-20T08:05:39;100759.13;;;3.91;100.00
7200;BME280;3641;49.082;8.200;2023-12-20T08:08:06;100761.44;;;3.95;100.00
7200;BME280;3641;49.082;8.200;2023-12-20T08:10:33;100765.91;;;4.06;100.00
7200;BME280;3641;49.082;8.200;2023-12-20T08:12:59;100772.09;;;3.76;100.00
7200;BME280;3641;49.082;8.200;2023-12-20T08:15:26;100759.25;;;3.89;100.00
7200;BME280;3641;49.082;8.200;2023-12-20T08:17:52;100763.94;;;3.66;100.00
7200;BME280;3641;49.082;8.200;2023-12-20T08:20:18;100764.13;;;3.74;100.00
7200;BME280;3641;49.082;8.200;2023-12-20T08:22:46;100763.03;;;3.77;100.00
7200;BME280;3641;49.082;8.200;2023-12-20T08:25:13;100766.16;;;4.03;100.00
7200;BME280;3641;49.082;8.200;2023-12-20T08:27:40;100766.75;;;3.86;100.00
7200;BME280;3641;49.082;8.200;2023-12-20T08:30:08;100772.88;;;3.88;100.00
7200;BME280;3641;49.082;8.200;2023-12-20T08:32:35;100775.06;;;3.94;100.00
7200;BME280;3641;49.082;8.200;2023-12-20T08:35:02;100781.31;;;4.15;100.00
7200;BME280;3641;49.082;8.200;2023-12-20T08:37:29;100792.13;;;4.15;100.00
7200;BME280;3641;49.082;8.200;2023-12-20T08:39:57;100796.44;;;4.18;100.00
7200;BME280;3641;49.082;8.200;2023-12-20T08:42:23;100791.41;;;4.34;100.00
7200;BME280;3641;49.082;8.200;2023-12-20T08:44:56;100790.31;;;4.47;100.00
7200;BME280;3641;49.082;8.200;2023-12-20T08:47:22;100778.91;;;4.43;100.00
7200;BME280;3641;49.082;8.200;2023-12-20T08:49:48;100779.66;;;4.45;100.00
7200;BME280;3641;49.082;8.200;2023-12-20T08:52:15;100776.09;;;4.54;100.00
7200;BME280;3641;49.082;8.200;2023-12-20T08:54:41;100777.44;;;4.60;100.00
7200;BME280;3641;49.082;8.200;2023-12-20T08:57:09;100787.31;;;4.71;100.00
7200;BME280;3641;49.082;8.200;2023-12-20T08:59:35;100774.50;;;4.73;100.00
7200;BME280;3641;49.082;8.200;2023-12-20T09:02:02;100782.19;;;4.78;100.00
7200;BME280;3641;49.082;8.200;2023-12-20T09:04:28;100780.34;;;4.88;100.00
7200;BME280;3641;49.082;8.200;2023-12-20T09:06:54;100776.94;;;4.86;100.00
7200;BME280;3641;49.082;8.200;2023-12-20T09:09:21;100778.53;;;4.88;100.00
7200;BME280;3641;49.082;8.200;2023-12-20T09:11:47;100775.28;;;4.95;100.00
7200;BME280;3641;49.082;8.200;2023-12-20T09:14:17;100767.59;;;5.00;100.00
7200;BME280;3641;49.082;8.200;2023-12-20T09:16:44;100760.19;;;5.02;99.30
7200;BME280;3641;49.082;8.200;2023-12-20T09:19:10;100765.47;;;5.03;98.15
7200;BME280;3641;49.082;8.200;2023-12-20T09:21:36;100760.91;;;5.14;99.10
7200;BME280;3641;49.082;8.200;2023-12-20T09:24:03;100760.78;;;5.15;97.88
7200;BME280;3641;49.082;8.200;2023-12-20T09:26:30;100762.63;;;5.15;97.71
7200;BME280;3641;49.082;8.200;2023-12-20T09:28:56;100763.75;;;5.12;97.54
7200;BME280;3641;49.082;8.200;2023-12-20T09:31:24;100760.78;;;5.15;97.54
7200;BME280;3641;49.082;8.200;2023-12-20T09:33:50;100757.22;;;5.15;98.96
7200;BME280;3641;49.082;8.200;2023-12-20T09:36:17;100767.75;;;5.08;97.19
7200;BME280;3641;49.082;8.200;2023-12-20T09:38:43;100757.22;;;5.15;97.83
7200;BME280;3641;49.082;8.200;2023-12-20T09:41:09;100770.88;;;5.13;97.16
7200;BME280;3641;49.082;8.200;2023-12-20T09:43:37;100767.78;;;5.27;98.14
7200;BME280;3641;49.082;8.200;2023-12-20T09:46:06;100775.75;;;5.29;98.05
7200;BME280;3641;49.082;8.200;2023-12-20T09:48:36;100768.06;;;5.34;98.17
7200;BME280;3641;49.082;8.200;2023-12-20T09:51:03;100768.34;;;5.31;97.45
7200;BME280;3641;49.082;8.200;2023-12-20T09:53:30;100763.38;;;5.26;97.04
7200;BME280;3641;49.082;8.200;2023-12-20T09:55:59;100765.06;;;5.37;97.86
7200;BME280;3641;49.082;8.200;2023-12-20T09:58:26;100771.19;;;5.30;96.70
7200;BME280;3641;49.082;8.200;2023-12-20T10:00:53;100764.94;;;5.29;97.22
7200;BME280;3641;49.082;8.200;2023-12-20T10:03:24;100774.22;;;5.26;98.54
7200;BME280;3641;49.082;8.200;2023-12-20T10:05:54;100765.91;;;5.18;99.14
7200;BME280;3641;49.082;8.200;2023-12-20T10:08:22;100766.94;;;5.27;98.97
7200;BME280;3641;49.082;8.200;2023-12-20T10:10:50;100760.81;;;5.25;99.81
7200;BME280;3641;49.082;8.200;2023-12-20T10:13:16;100760.78;;;5.15;99.07
7200;BME280;3641;49.082;8.200;2023-12-20T10:15:43;100744.25;;;5.28;100.00
7200;BME280;3641;49.082;8.200;2023-12-20T10:18:12;100749.09;;;5.15;98.99
7200;BME280;3641;49.082;8.200;2023-12-20T10:20:40;100742.56;;;5.07;98.95
7200;BME280;3641;49.082;8.200;2023-12-20T10:23:08;100747.97;;;5.07;99.20
7200;BME280;3641;49.082;8.200;2023-12-20T10:25:35;100749.66;;;5.18;100.00
7200;BME280;3641;49.082;8.200;2023-12-20T10:28:12;100740.28;;;5.13;99.25
7200;BME280;3641;49.082;8.200;2023-12-20T10:30:39;100748.81;;;5.27;100.00
7200;BME280;3641;49.082;8.200;2023-12-20T10:33:06;100735.00;;;5.40;100.00
7200;BME280;3641;49.082;8.200;2023-12-20T10:35:33;100736.03;;;5.59;98.25
7200;BME280;3641;49.082;8.200;2023-12-20T10:38:02;100734.31;;;5.58;97.49
7200;BME280;3641;49.082;8.200;2023-12-20T10:40:31;100728.44;;;5.82;97.06
7200;BME280;3641;49.082;8.200;2023-12-20T10:42:58;100733.69;;;5.83;97.81
7200;BME280;3641;49.082;8.200;2023-12-20T10:45:26;100737.00;;;5.97;96.66
7200;BME280;3641;49.082;8.200;2023-12-20T10:47:52;100739.13;;;6.03;95.16
7200;BME280;3641;49.082;8.200;2023-12-20T10:50:19;100735.22;;;6.15;95.67
7200;BME280;3641;49.082;8.200;2023-12-20T10:52:46;100729.97;;;6.14;95.52
7200;BME280;3641;49.082;8.200;2023-12-20T10:55:13;100729.00;;;6.05;95.75
7200;BME280;3641;49.082;8.200;2023-12-20T10:57:42;100726.84;;;6.09;96.77
7200;BME280;3641;49.082;8.200;2023-12-20T11:00:14;100729.16;;;5.84;93.69
7200;BME280;3641;49.082;8.200;2023-12-20T11:02:42;100720.88;;;5.95;94.90
7200;BME280;3641;49.082;8.200;2023-12-20T11:05:16;100720.00;;;5.95;94.46
7200;BME280;3641;49.082;8.200;2023-12-20T11:07:48;100731.00;;;5.83;94.09
7200;BME280;3641;49.082;8.200;2023-12-20T11:10:19;100727.41;;;5.93;95.30
7200;BME280;3641;49.082;8.200;2023-12-20T11:12:51;100731.56;;;5.87;95.75
7200;BME280;3641;49.082;8.200;2023-12-20T11:15:20;100729.72;;;5.88;97.69
7200;BME280;3641;49.082;8.200;2023-12-20T11:17:54;100732.31;;;5.70;96.24
7200;BME280;3641;49.082;8.200;2023-12-20T11:20:22;100734.56;;;5.74;97.40
7200;BME280;3641;49.082;8.200;2023-12-20T11:22:53;100734.56;;;5.84;98.56
7200;BME280;3641;49.082;8.200;2023-12-20T11:25:20;100730.72;;;5.77;97.24
7200;BME280;3641;49.082;8.200;2023-12-20T11:28:08;100717.06;;;5.69;97.24
7200;BME280;3641;49.082;8.200;2023-12-20T11:30:42;100719.47;;;5.72;97.70
7200;BME280;3641;49.082;8.200;2023-12-20T11:33:09;100725.19;;;5.69;97.65
7200;BME280;3641;49.082;8.200;2023-12-20T11:35:35;100711.78;;;5.67;98.84
7200;BME280;3641;49.082;8.200;2023-12-20T11:38:03;100708.53;;;5.54;100.00
7200;BME280;3641;49.082;8.200;2023-12-20T11:40:33;100702.66;;;5.58;100.00
7200;BME280;3641;49.082;8.200;2023-12-20T11:43:00;100713.06;;;5.63;100.00
7200;BME280;3641;49.082;8.200;2023-12-20T11:45:28;100710.78;;;5.58;100.00
7200;BME280;3641;49.082;8.200;2023-12-20T11:47:56;100704.69;;;5.37;100.00
7200;BME280;3641;49.082;8.200;2023-12-20T11:50:23;100709.94;;;5.38;100.00
7200;BME280;3641;49.082;8.200;2023-12-20T11:52:52;100718.75;;;5.50;100.00
7200;BME280;3641;49.082;8.200;2023-12-20T11:55:18;100713.22;;;5.52;100.00
7200;BME280;3641;49.082;8.200;2023-12-20T11:57:45;100707.50;;;5.64;100.00
7200;BME280;3641;49.082;8.200;2023-12-20T12:00:13;100712.94;;;5.45;100.00
7200;BME280;3641;49.082;8.200;2023-12-20T12:02:41;100701.13;;;5.46;100.00
7200;BME280;3641;49.082;8.200;2023-12-20T12:05:08;100702.38;;;5.42;100.00
7200;BME280;3641;49.082;8.200;2023-12-20T12:07:34;100695.13;;;5.52;100.00
7200;BME280;3641;49.082;8.200;2023-12-20T12:10:01;100696.13;;;5.51;100.00
7200;BME280;3641;49.082;8.200;2023-12-20T12:12:28;100692.97;;;5.56;100.00
7200;BME280;3641;49.082;8.200;2023-12-20T12:14:56;100693.97;;;5.55;100.00
7200;BME280;3641;49.082;8.200;2023-12-20T12:17:23;100692.69;;;5.59;100.00
7200;BME280;3641;49.082;8.200;2023-12-20T12:20:02;100695.97;;;5.53;100.00
7200;BME280;3641;49.082;8.200;2023-12-20T12:22:29;100704.53;;;5.48;100.00
7200;BME280;3641;49.082;8.200;2023-12-20T12:24:59;100702.38;;;5.42;100.00
7200;BME280;3641;49.082;8.200;2023-12-20T12:27:27;100694.53;;;5.49;100.00
7200;BME280;3641;49.082;8.200;2023-12-20T12:30:00;100688.28;;;5.38;100.00
7200;BME280;3641;49.082;8.200;2023-12-20T12:32:27;100691.13;;;5.37;100.00
7200;BME280;3641;49.082;8.200;2023-12-20T12:34:55;100683.88;;;5.37;99.54
7200;BME280;3641;49.082;8.200;2023-12-20T12:37:22;100673.88;;;5.57;100.00
7200;BME280;3641;49.082;8.200;2023-12-20T12:39:49;100685.28;;;5.51;100.00
7200;BME280;3641;49.082;8.200;2023-12-20T12:42:15;100684.44;;;5.31;98.25
7200;BME280;3641;49.082;8.200;2023-12-20T12:44:42;100680.75;;;5.32;99.21
7200;BME280;3641;49.082;8.200;2023-12-20T12:47:08;100680.16;;;5.38;99.17
7200;BME280;3641;49.082;8.200;2023-12-20T12:49:35;100682.28;;;5.54;99.69
7200;BME280;3641;49.082;8.200;2023-12-20T12:52:03;100689.72;;;5.52;100.00
7200;BME280;3641;49.082;8.200;2023-12-20T12:54:30;100691.16;;;5.27;98.24
7200;BME280;3641;49.082;8.200;2023-12-20T12:56:56;100704.69;;;5.27;98.52
7200;BME280;3641;49.082;8.200;2023-12-20T12:59:23;100692.41;;;5.33;99.14
7200;BME280;3641;49.082;8.200;2023-12-20T13:01:49;100695.44;;;5.39;99.44
7200;BME280;3641;49.082;8.200;2023-12-20T13:04:16;100696.41;;;5.38;98.25
7200;BME280;3641;49.082;8.200;2023-12-20T13:06:42;100691.56;;;5.32;98.63
7200;BME280;3641;49.082;8.200;2023-12-20T13:09:10;100679.75;;;5.23;99.15
7200;BME280;3641;49.082;8.200;2023-12-20T13:11:37;100684.16;;;5.34;99.18